KEGE/EGE METAR and TAF weather

Enter ICAO airport designator
Station Type Date Time Source
KEGE METAR 2022/06/30 01:56 UTC NOAA

KEGE 300156Z AUTO VRB04KT 10SM FEW100 21/12 A3031 RMK AO2 LTG DSNT NE TSB31E51RAE19 SLP158 P0001 T02060117


Station Type Date Time Source
KEGE Decoded METAR 2022/06/30 01:56 UTC NOAA

Eagle County Regional, CO, United States (KEGE) 39-39N 106-55W
Jun 29, 2022 - 09:56 PM EDT / 2022.06.30 0156 UTC
Wind: Variable at 5 MPH (4 KT):0
Visibility: 10 mile(s):0
Sky conditions: mostly clear
Weather: Lightning observed
Precipitation last hour: 0.01 inches
Temperature: 69.1 F (20.6 C)
Dew Point: 53.1 F (11.7 C)
Relative Humidity: 56%
Pressure (altimeter): 30.31 in. Hg (1026 hPa)
ob: KEGE 300156Z AUTO VRB04KT 10SM FEW100 21/12 A3031 RMK AO2 LTG DSNT NE TSB31E51RAE19 SLP158 P0001 T02060117
cycle: 2

Station Type Date Time Source
KEGE TAF 2022/06/29 18:42 UTC NOAA

TAF KEGE 291740Z 2918/3018 26008KT P6SM FEW100 SCT200
FM292000 24013G22KT P6SM VCTS SCT100CB
FM300200 08006KT P6SM VCTS FEW080CB SCT100
FM300500 10005KT P6SM FEW070 SCT100

Example: see airport list